createdAt,value
2023-11-17T00:00:03.350Z,78.41
2023-11-17T00:00:24.430Z,78.45
2023-11-17T00:00:45.505Z,78.50
2023-11-17T00:01:06.591Z,78.45
2023-11-17T00:01:27.629Z,78.46
2023-11-17T00:01:48.734Z,78.43
2023-11-17T00:02:09.844Z,78.43
2023-11-17T00:02:30.890Z,78.39
2023-11-17T00:02:52.048Z,78.37
2023-11-17T00:03:13.243Z,78.36
2023-11-17T00:03:34.437Z,78.42
2023-11-17T00:03:55.668Z,78.44
2023-11-17T00:04:16.945Z,78.47
2023-11-17T00:04:38.140Z,78.51
2023-11-17T00:04:59.271Z,78.49
2023-11-17T00:05:20.319Z,78.55
2023-11-17T00:05:41.365Z,78.47
2023-11-17T00:06:02.520Z,78.48
2023-11-17T00:06:23.568Z,78.48
2023-11-17T00:06:44.668Z,78.46
2023-11-17T00:07:05.721Z,78.45
2023-11-17T00:07:26.757Z,78.47
2023-11-17T00:07:47.846Z,78.48
2023-11-17T00:08:08.896Z,78.46
2023-11-17T00:08:30.075Z,78.43
2023-11-17T00:08:51.204Z,78.44
2023-11-17T00:09:12.267Z,78.42
2023-11-17T00:09:33.303Z,78.40
2023-11-17T00:09:54.396Z,78.40
2023-11-17T00:10:15.546Z,78.40
2023-11-17T00:10:36.617Z,78.39
2023-11-17T00:10:57.679Z,78.36
2023-11-17T00:11:18.724Z,78.42
2023-11-17T00:11:39.775Z,78.36
2023-11-17T00:12:00.837Z,78.39
2023-11-17T00:12:21.904Z,78.34
2023-11-17T00:12:43.159Z,78.36
2023-11-17T00:13:04.296Z,78.37
2023-11-17T00:13:25.416Z,78.34
2023-11-17T00:13:46.456Z,78.25
2023-11-17T00:14:07.536Z,78.30
2023-11-17T00:14:28.598Z,78.28
2023-11-17T00:14:49.683Z,78.26
2023-11-17T00:15:10.772Z,78.27
2023-11-17T00:15:31.811Z,78.22
2023-11-17T00:15:52.993Z,78.23
2023-11-17T00:16:14.128Z,78.18
2023-11-17T00:16:35.309Z,78.21
2023-11-17T00:16:56.427Z,78.21
2023-11-17T00:17:17.464Z,78.21
2023-11-17T00:17:38.544Z,78.19
2023-11-17T00:17:59.651Z,78.12
2023-11-17T00:18:20.734Z,78.09
2023-11-17T00:18:41.808Z,78.13
2023-11-17T00:19:02.936Z,78.10
2023-11-17T00:19:23.998Z,78.12
2023-11-17T00:19:45.027Z,78.11
2023-11-17T00:20:06.091Z,78.12
2023-11-17T00:20:27.145Z,78.13
2023-11-17T00:20:48.202Z,78.12
2023-11-17T00:21:09.284Z,78.10
2023-11-17T00:21:30.318Z,78.13
2023-11-17T00:21:51.418Z,78.12
2023-11-17T00:22:12.500Z,78.09
2023-11-17T00:22:33.554Z,78.06
2023-11-17T00:22:54.605Z,78.02
2023-11-17T00:23:15.662Z,78.02
2023-11-17T00:23:36.745Z,78.07
2023-11-17T00:23:57.806Z,78.02
2023-11-17T00:24:18.889Z,78.03
2023-11-17T00:24:39.916Z,78.03
2023-11-17T00:25:01.062Z,78.00
2023-11-17T00:25:22.177Z,77.97
2023-11-17T00:25:43.226Z,77.95
2023-11-17T00:26:04.312Z,77.94
2023-11-17T00:26:25.369Z,77.91
2023-11-17T00:26:46.431Z,77.92
2023-11-17T00:27:07.489Z,77.92
2023-11-17T00:27:28.555Z,77.90
2023-11-17T00:27:49.641Z,77.94
2023-11-17T00:28:10.697Z,77.92
2023-11-17T00:28:31.750Z,77.96
2023-11-17T00:28:52.812Z,77.96
2023-11-17T00:29:13.870Z,77.95
2023-11-17T00:29:34.941Z,77.95
2023-11-17T00:29:56.007Z,77.96
2023-11-17T00:30:17.079Z,77.93
2023-11-17T00:30:38.140Z,77.93
2023-11-17T00:30:59.243Z,77.92
2023-11-17T00:31:20.332Z,77.92
2023-11-17T00:31:41.351Z,77.90
2023-11-17T00:32:02.470Z,77.92
2023-11-17T00:32:23.511Z,77.92
2023-11-17T00:32:44.581Z,77.94
2023-11-17T00:33:05.710Z,77.96
2023-11-17T00:33:26.760Z,77.97
2023-11-17T00:33:47.910Z,77.96
2023-11-17T00:34:09.012Z,77.94
2023-11-17T00:34:30.101Z,77.95
2023-11-17T00:34:51.297Z,77.89
2023-11-17T00:35:12.420Z,77.87
2023-11-17T00:35:33.459Z,77.87
2023-11-17T00:35:54.518Z,77.81
2023-11-17T00:36:15.589Z,77.80
2023-11-17T00:36:36.654Z,77.78
2023-11-17T00:36:57.736Z,77.75
2023-11-17T00:37:18.790Z,77.75
2023-11-17T00:37:39.888Z,77.78
2023-11-17T00:38:00.932Z,77.78
2023-11-17T00:38:21.988Z,77.78
2023-11-17T00:38:43.071Z,77.80
2023-11-17T00:39:04.135Z,77.81
2023-11-17T00:39:25.240Z,77.85
2023-11-17T00:39:46.301Z,77.91
2023-11-17T00:40:07.377Z,77.90
2023-11-17T00:40:28.462Z,77.90
2023-11-17T00:40:49.516Z,77.96
2023-11-17T00:41:17.690Z,77.94
2023-11-17T00:41:37.567Z,78.00
2023-11-17T00:41:58.609Z,77.98
2023-11-17T00:42:19.683Z,77.95
2023-11-17T00:42:40.752Z,77.89
2023-11-17T00:43:01.858Z,77.91
2023-11-17T00:43:22.940Z,78.00
2023-11-17T00:43:43.965Z,77.94
2023-11-17T00:44:05.043Z,77.96
2023-11-17T00:44:26.119Z,77.95
2023-11-17T00:44:47.178Z,77.97
2023-11-17T00:45:08.231Z,78.00
2023-11-17T00:45:29.340Z,77.99
2023-11-17T00:45:50.497Z,77.94
2023-11-17T00:46:11.734Z,77.94
2023-11-17T00:46:32.880Z,77.96
2023-11-17T00:46:54.063Z,78.01
2023-11-17T00:47:15.229Z,78.06
2023-11-17T00:47:36.326Z,78.02
2023-11-17T00:47:57.431Z,78.02
2023-11-17T00:48:18.475Z,78.05
2023-11-17T00:48:39.512Z,78.07
2023-11-17T00:49:00.579Z,78.08
2023-11-17T00:49:21.684Z,78.07
2023-11-17T00:49:42.744Z,78.07
2023-11-17T00:50:03.793Z,78.06
2023-11-17T00:50:24.882Z,78.07
2023-11-17T00:50:45.935Z,78.05
2023-11-17T00:51:06.994Z,78.05
2023-11-17T00:51:28.039Z,78.12
2023-11-17T00:51:49.120Z,78.09
2023-11-17T00:52:10.494Z,78.15
2023-11-17T00:52:31.515Z,78.14
2023-11-17T00:52:52.576Z,78.11
2023-11-17T00:53:13.634Z,78.08
2023-11-17T00:53:34.696Z,78.09
2023-11-17T00:53:55.761Z,78.06
2023-11-17T00:54:16.836Z,78.05
2023-11-17T00:54:37.938Z,78.01
2023-11-17T00:54:58.962Z,78.02
2023-11-17T00:55:20.064Z,78.02
2023-11-17T00:55:41.846Z,77.99
2023-11-17T00:56:02.899Z,78.05
2023-11-17T00:56:23.961Z,78.06
2023-11-17T00:56:45.040Z,78.08
2023-11-17T00:57:06.084Z,78.09
2023-11-17T00:57:27.126Z,78.13
2023-11-17T00:57:48.223Z,78.14
2023-11-17T00:58:09.304Z,78.10
2023-11-17T00:58:30.385Z,78.12
2023-11-17T00:58:51.427Z,78.16
2023-11-17T00:59:12.490Z,78.13
2023-11-17T00:59:33.528Z,78.10
2023-11-17T00:59:54.609Z,78.09
2023-11-17T01:00:15.641Z,78.09
2023-11-17T01:00:36.689Z,78.12
2023-11-17T01:00:58.058Z,78.07
2023-11-17T01:01:19.438Z,78.08
2023-11-17T01:01:40.595Z,77.99
2023-11-17T01:02:01.790Z,77.99
2023-11-17T01:02:22.872Z,77.99
2023-11-17T01:02:44.131Z,78.03
2023-11-17T01:03:05.341Z,78.01
2023-11-17T01:03:26.503Z,78.02
2023-11-17T01:03:47.742Z,78.01
2023-11-17T01:04:08.849Z,77.98
2023-11-17T01:04:29.937Z,77.94
2023-11-17T01:04:50.976Z,78.00
2023-11-17T01:05:12.054Z,77.96
2023-11-17T01:05:33.097Z,78.03
2023-11-17T01:05:54.160Z,78.06
2023-11-17T01:06:15.210Z,78.06
2023-11-17T01:06:36.264Z,78.03
2023-11-17T01:06:57.352Z,78.04
2023-11-17T01:07:18.539Z,78.00
2023-11-17T01:07:39.610Z,78.00
2023-11-17T01:08:00.660Z,78.01
2023-11-17T01:08:21.728Z,77.97
2023-11-17T01:08:42.793Z,77.96
2023-11-17T01:09:03.856Z,77.94
2023-11-17T01:09:24.923Z,77.93
2023-11-17T01:09:46.034Z,77.91
2023-11-17T01:10:07.109Z,77.97
2023-11-17T01:10:28.207Z,77.98
2023-11-17T01:10:49.242Z,77.98
2023-11-17T01:11:10.295Z,78.00
2023-11-17T01:11:31.377Z,78.02
2023-11-17T01:11:52.439Z,78.04
2023-11-17T01:12:13.489Z,78.11
2023-11-17T01:12:34.579Z,78.12
2023-11-17T01:12:55.683Z,78.12
2023-11-17T01:13:16.818Z,78.14
2023-11-17T01:13:37.977Z,78.16
2023-11-17T01:13:59.057Z,78.21
2023-11-17T01:14:20.091Z,78.16
2023-11-17T01:14:41.148Z,78.18
2023-11-17T01:15:02.204Z,78.16
2023-11-17T01:15:23.275Z,78.18
2023-11-17T01:15:44.363Z,78.13
2023-11-17T01:16:05.443Z,78.20
2023-11-17T01:16:26.507Z,78.17
2023-11-17T01:16:47.591Z,78.15
2023-11-17T01:17:08.705Z,78.21
2023-11-17T01:17:29.898Z,78.17
2023-11-17T01:17:51.015Z,78.20
2023-11-17T01:18:12.131Z,78.21
2023-11-17T01:18:33.159Z,78.26
2023-11-17T01:18:54.256Z,78.22
2023-11-17T01:19:15.352Z,78.25
2023-11-17T01:19:36.394Z,78.27
2023-11-17T01:19:57.444Z,78.33
2023-11-17T01:20:18.504Z,78.42
2023-11-17T01:20:39.569Z,78.42
2023-11-17T01:21:00.636Z,78.42
2023-11-17T01:21:21.702Z,78.44
2023-11-17T01:21:42.804Z,78.42
2023-11-17T01:22:03.903Z,78.42
2023-11-17T01:22:24.956Z,78.41
2023-11-17T01:22:45.987Z,78.47
2023-11-17T01:23:07.056Z,78.51
2023-11-17T01:23:28.138Z,78.49
2023-11-17T01:23:49.162Z,78.49
2023-11-17T01:24:10.223Z,78.48
2023-11-17T01:24:31.270Z,78.56
2023-11-17T01:24:52.382Z,78.51
2023-11-17T01:25:13.463Z,78.54
2023-11-17T01:25:34.481Z,78.57
2023-11-17T01:25:55.562Z,78.53
2023-11-17T01:26:16.619Z,78.63
2023-11-17T01:26:37.678Z,78.61
2023-11-17T01:26:58.733Z,78.60
2023-11-17T01:27:19.779Z,78.62
2023-11-17T01:27:40.909Z,78.61
2023-11-17T01:28:02.023Z,78.65
2023-11-17T01:28:23.109Z,78.65
2023-11-17T01:28:44.184Z,78.63
2023-11-17T01:29:05.235Z,78.70
2023-11-17T01:29:26.299Z,78.71
2023-11-17T01:29:47.374Z,78.71
2023-11-17T01:30:08.419Z,78.72
2023-11-17T01:30:29.474Z,78.73
2023-11-17T01:30:50.550Z,78.74
2023-11-17T01:31:11.625Z,78.69
2023-11-17T01:31:32.655Z,78.70
2023-11-17T01:31:53.719Z,78.76
2023-11-17T01:32:14.782Z,78.76
2023-11-17T01:32:35.850Z,78.74
2023-11-17T01:32:56.924Z,78.75
2023-11-17T01:33:17.948Z,78.71
2023-11-17T01:33:39.017Z,78.76
2023-11-17T01:34:00.119Z,78.74
2023-11-17T01:34:21.314Z,78.72
2023-11-17T01:34:42.434Z,78.67
2023-11-17T01:35:03.548Z,78.72
2023-11-17T01:35:24.574Z,78.70
2023-11-17T01:35:45.638Z,78.80
2023-11-17T01:36:06.710Z,78.75
2023-11-17T01:36:27.782Z,78.74
2023-11-17T01:36:48.886Z,78.72
2023-11-17T01:37:09.965Z,78.72
2023-11-17T01:37:31.004Z,78.70
2023-11-17T01:37:52.046Z,78.67
2023-11-17T01:38:13.092Z,78.68
2023-11-17T01:38:43.257Z,78.68
2023-11-17T01:39:01.138Z,78.68
2023-11-17T01:39:22.291Z,78.65
2023-11-17T01:39:43.394Z,78.64
2023-11-17T01:40:04.508Z,78.63
2023-11-17T01:40:25.647Z,78.59
2023-11-17T01:40:46.750Z,78.57
2023-11-17T01:41:07.833Z,78.59
2023-11-17T01:41:28.898Z,78.56
2023-11-17T01:41:49.971Z,78.58
2023-11-17T01:42:11.016Z,78.58
2023-11-17T01:42:32.091Z,78.61
2023-11-17T01:42:53.214Z,78.62
2023-11-17T01:43:14.351Z,78.65
2023-11-17T01:43:35.449Z,78.64
2023-11-17T01:43:56.496Z,78.70
2023-11-17T01:44:17.636Z,78.63
2023-11-17T01:44:38.666Z,78.68
2023-11-17T01:44:59.721Z,78.69
2023-11-17T01:45:20.792Z,78.69
2023-11-17T01:45:41.899Z,78.70
2023-11-17T01:46:03.032Z,78.66
2023-11-17T01:46:24.153Z,78.71
2023-11-17T01:46:45.274Z,78.72
2023-11-17T01:47:06.400Z,78.72
2023-11-17T01:47:27.493Z,78.71
2023-11-17T01:47:48.622Z,78.73
2023-11-17T01:48:09.665Z,78.75
2023-11-17T01:48:30.716Z,78.75
2023-11-17T01:48:51.796Z,78.76
2023-11-17T01:49:12.868Z,78.72
2023-11-17T01:49:33.904Z,78.74
2023-11-17T01:49:54.962Z,78.77
2023-11-17T01:50:16.033Z,78.78
2023-11-17T01:50:37.140Z,78.78
2023-11-17T01:50:58.188Z,78.78
2023-11-17T01:51:19.239Z,78.82
2023-11-17T01:51:40.308Z,78.77
2023-11-17T01:52:01.415Z,78.79
2023-11-17T01:52:22.479Z,78.78
2023-11-17T01:52:43.516Z,78.81
2023-11-17T01:53:04.573Z,78.76
2023-11-17T01:53:25.634Z,78.69
2023-11-17T01:53:46.702Z,78.70
2023-11-17T01:54:07.740Z,78.71
2023-11-17T01:54:28.812Z,78.71
2023-11-17T01:54:49.931Z,78.67
2023-11-17T01:55:11.140Z,78.69
2023-11-17T01:55:32.198Z,78.65
2023-11-17T01:55:53.243Z,78.62
2023-11-17T01:56:14.306Z,78.61
2023-11-17T01:56:35.346Z,78.64
2023-11-17T01:56:56.407Z,78.65
2023-11-17T01:57:17.473Z,78.66
2023-11-17T01:57:38.563Z,78.62
2023-11-17T01:57:59.633Z,78.58
2023-11-17T01:58:20.744Z,78.57
2023-11-17T01:58:41.794Z,78.64
2023-11-17T01:59:02.860Z,78.65
2023-11-17T01:59:23.916Z,78.67
2023-11-17T01:59:44.976Z,78.72
2023-11-17T02:00:06.040Z,78.66
2023-11-17T02:00:27.110Z,78.66
2023-11-17T02:00:48.186Z,78.61
2023-11-17T02:01:09.292Z,78.59
2023-11-17T02:01:30.417Z,78.63
2023-11-17T02:01:51.472Z,78.59
2023-11-17T02:02:12.527Z,78.67
2023-11-17T02:02:33.677Z,78.53
2023-11-17T02:02:54.801Z,78.60
2023-11-17T02:03:15.910Z,78.64
2023-11-17T02:03:37.036Z,78.68
2023-11-17T02:03:58.194Z,78.61
2023-11-17T02:04:19.367Z,78.61
2023-11-17T02:04:40.440Z,78.62
2023-11-17T02:05:01.487Z,78.53
2023-11-17T02:05:22.555Z,78.58
2023-11-17T02:05:43.613Z,78.56
2023-11-17T02:06:04.674Z,78.52
2023-11-17T02:06:25.732Z,78.51
2023-11-17T02:06:46.872Z,78.49
2023-11-17T02:07:07.935Z,78.53
2023-11-17T02:07:29.014Z,78.48
2023-11-17T02:07:50.085Z,78.47
2023-11-17T02:08:11.136Z,78.50
2023-11-17T02:08:32.193Z,78.51
2023-11-17T02:08:53.242Z,78.54
2023-11-17T02:09:14.312Z,78.52
2023-11-17T02:09:35.373Z,78.44
2023-11-17T02:09:56.456Z,78.44
2023-11-17T02:10:17.563Z,78.48
2023-11-17T02:10:38.609Z,78.56
2023-11-17T02:10:59.669Z,78.61
2023-11-17T02:11:20.737Z,78.57
2023-11-17T02:11:41.806Z,78.51
2023-11-17T02:12:02.862Z,78.61
2023-11-17T02:12:23.945Z,78.62
2023-11-17T02:12:45.030Z,78.63
2023-11-17T02:13:06.137Z,78.63
2023-11-17T02:13:27.250Z,78.66
2023-11-17T02:13:48.336Z,78.62
2023-11-17T02:14:09.413Z,78.65
2023-11-17T02:14:30.446Z,78.71
2023-11-17T02:14:51.511Z,78.74
2023-11-17T02:15:12.627Z,78.76
2023-11-17T02:15:34.730Z,78.72
2023-11-17T02:15:56.812Z,78.75
2023-11-17T02:16:17.910Z,78.81
2023-11-17T02:16:39.079Z,78.78
2023-11-17T02:17:00.180Z,78.79
2023-11-17T02:17:21.263Z,78.86
2023-11-17T02:17:42.414Z,78.79
2023-11-17T02:18:03.488Z,78.80
2023-11-17T02:18:24.529Z,78.82
2023-11-17T02:18:45.597Z,78.83
2023-11-17T02:19:06.674Z,78.81
2023-11-17T02:19:27.705Z,78.77
2023-11-17T02:19:48.763Z,78.82
2023-11-17T02:20:09.875Z,78.91
2023-11-17T02:20:30.933Z,78.86
2023-11-17T02:20:51.987Z,78.90
2023-11-17T02:21:13.052Z,78.87
2023-11-17T02:21:34.107Z,78.90
2023-11-17T02:21:55.217Z,78.92
2023-11-17T02:22:16.328Z,78.88
2023-11-17T02:22:37.394Z,78.90
2023-11-17T02:22:58.437Z,78.89
2023-11-17T02:23:19.495Z,78.93
2023-11-17T02:23:40.569Z,78.89
2023-11-17T02:24:01.647Z,78.88
2023-11-17T02:24:22.686Z,78.89
2023-11-17T02:24:43.730Z,78.86
2023-11-17T02:25:04.846Z,78.83
2023-11-17T02:25:26.073Z,78.88
2023-11-17T02:25:47.160Z,78.83
2023-11-17T02:26:08.230Z,78.83
2023-11-17T02:26:29.288Z,78.83
2023-11-17T02:26:50.365Z,78.78
2023-11-17T02:27:11.407Z,78.73
2023-11-17T02:27:32.490Z,78.77
2023-11-17T02:27:53.585Z,78.75
2023-11-17T02:28:14.659Z,78.75
2023-11-17T02:28:35.757Z,78.77
2023-11-17T02:28:56.820Z,78.79
2023-11-17T02:29:17.884Z,78.81
2023-11-17T02:29:39.184Z,78.78
2023-11-17T02:30:00.337Z,78.81
2023-11-17T02:30:21.420Z,78.81
2023-11-17T02:30:42.524Z,78.87
2023-11-17T02:31:03.646Z,78.87
2023-11-17T02:31:24.871Z,78.84
2023-11-17T02:31:45.996Z,78.89
2023-11-17T02:32:07.078Z,78.88
2023-11-17T02:32:28.156Z,78.92
2023-11-17T02:32:49.317Z,78.94
2023-11-17T02:33:10.369Z,78.87
2023-11-17T02:33:31.519Z,78.88
2023-11-17T02:33:52.600Z,78.91
2023-11-17T02:34:13.676Z,78.87
2023-11-17T02:34:34.712Z,78.89
2023-11-17T02:34:55.774Z,78.88
2023-11-17T02:35:16.863Z,78.91
2023-11-17T02:35:37.891Z,78.88
2023-11-17T02:35:58.968Z,78.87
2023-11-17T02:36:20.029Z,78.91
2023-11-17T02:36:41.090Z,78.90
2023-11-17T02:37:02.190Z,78.91
2023-11-17T02:37:23.299Z,78.88
2023-11-17T02:37:44.319Z,78.92
2023-11-17T02:38:05.378Z,78.97
2023-11-17T02:38:26.436Z,78.92
2023-11-17T02:38:47.516Z,78.95
2023-11-17T02:39:08.571Z,78.92
2023-11-17T02:39:29.619Z,78.93
2023-11-17T02:39:50.700Z,79.01
2023-11-17T02:40:11.768Z,78.94
2023-11-17T02:40:32.840Z,78.96
2023-11-17T02:40:53.876Z,78.97
2023-11-17T02:41:14.929Z,78.96
2023-11-17T02:41:35.991Z,78.95
2023-11-17T02:41:57.054Z,78.96
2023-11-17T02:42:18.107Z,78.92
2023-11-17T02:42:39.177Z,78.94
2023-11-17T02:43:00.283Z,78.92
2023-11-17T02:43:21.451Z,78.85
2023-11-17T02:43:42.517Z,78.91
2023-11-17T02:44:03.667Z,78.90
2023-11-17T02:44:24.733Z,78.89
2023-11-17T02:44:45.790Z,78.88
2023-11-17T02:45:06.851Z,78.89
2023-11-17T02:45:27.935Z,78.86
2023-11-17T02:45:49.054Z,78.81
2023-11-17T02:46:10.162Z,78.88
2023-11-17T02:46:31.307Z,78.83
2023-11-17T02:46:52.481Z,78.88
2023-11-17T02:47:13.556Z,78.80
2023-11-17T02:47:34.623Z,78.80
2023-11-17T02:47:56.629Z,78.80
2023-11-17T02:48:24.623Z,78.78
2023-11-17T02:48:44.677Z,78.86
2023-11-17T02:49:05.757Z,78.85
2023-11-17T02:49:26.786Z,78.82
2023-11-17T02:49:47.973Z,78.81
2023-11-17T02:50:08.989Z,78.81
2023-11-17T02:50:30.064Z,78.79
2023-11-17T02:50:51.116Z,78.78
2023-11-17T02:51:12.168Z,78.80
2023-11-17T02:51:33.233Z,78.74
2023-11-17T02:51:54.364Z,78.79
2023-11-17T02:52:15.473Z,78.80
2023-11-17T02:52:36.502Z,78.75
2023-11-17T02:52:57.555Z,78.82
2023-11-17T02:53:18.620Z,78.83
2023-11-17T02:53:39.669Z,78.83
2023-11-17T02:54:00.718Z,78.83
2023-11-17T02:54:21.780Z,78.81
2023-11-17T02:54:42.883Z,78.81
2023-11-17T02:55:03.999Z,78.85
2023-11-17T02:55:25.114Z,78.81
2023-11-17T02:55:46.178Z,78.81
2023-11-17T02:56:07.620Z,78.83
2023-11-17T02:56:28.673Z,78.82
2023-11-17T02:56:49.712Z,78.83
2023-11-17T02:57:10.826Z,78.80
2023-11-17T02:57:31.926Z,78.81
2023-11-17T02:57:52.985Z,78.82
2023-11-17T02:58:14.089Z,78.79
2023-11-17T02:58:35.139Z,78.77
2023-11-17T02:58:56.224Z,78.76
2023-11-17T02:59:17.271Z,78.82
2023-11-17T02:59:38.355Z,78.77
2023-11-17T02:59:59.379Z,78.84
2023-11-17T03:00:20.455Z,78.78
2023-11-17T03:00:41.509Z,78.76
2023-11-17T03:01:02.669Z,78.77
2023-11-17T03:01:23.901Z,78.82
2023-11-17T03:01:45.008Z,78.78
2023-11-17T03:02:06.117Z,78.82
2023-11-17T03:02:27.280Z,78.84
2023-11-17T03:02:48.423Z,78.84
2023-11-17T03:03:09.537Z,78.84
2023-11-17T03:03:30.657Z,78.81
2023-11-17T03:03:51.813Z,78.76
2023-11-17T03:04:12.991Z,78.79
2023-11-17T03:04:34.167Z,78.80
2023-11-17T03:04:55.448Z,78.80
2023-11-17T03:05:16.646Z,78.85
2023-11-17T03:05:37.721Z,78.87
2023-11-17T03:05:58.799Z,78.87
2023-11-17T03:06:19.843Z,78.87
2023-11-17T03:06:40.911Z,78.87
2023-11-17T03:07:02.042Z,78.89
2023-11-17T03:07:23.171Z,78.89
2023-11-17T03:07:44.261Z,78.90
2023-11-17T03:08:05.322Z,78.87
2023-11-17T03:08:26.374Z,78.81
2023-11-17T03:08:47.436Z,78.75
2023-11-17T03:09:08.491Z,78.79
2023-11-17T03:09:29.589Z,78.78
2023-11-17T03:09:50.718Z,78.79
2023-11-17T03:10:11.809Z,78.76
2023-11-17T03:10:32.939Z,78.75
2023-11-17T03:10:54.002Z,78.74
2023-11-17T03:11:15.043Z,78.71
2023-11-17T03:11:36.095Z,78.76
2023-11-17T03:11:57.162Z,78.74
2023-11-17T03:12:18.265Z,78.79
2023-11-17T03:12:39.328Z,78.72
2023-11-17T03:13:00.395Z,78.77
2023-11-17T03:13:21.472Z,78.74
2023-11-17T03:13:42.541Z,78.78
2023-11-17T03:14:03.589Z,78.77
2023-11-17T03:14:24.654Z,78.74
2023-11-17T03:14:45.738Z,78.72
2023-11-17T03:15:06.798Z,78.79
2023-11-17T03:15:27.844Z,78.80
2023-11-17T03:15:48.953Z,78.79
2023-11-17T03:16:10.093Z,78.82
2023-11-17T03:16:31.292Z,78.80
2023-11-17T03:16:52.396Z,78.87
2023-11-17T03:17:13.449Z,78.86
2023-11-17T03:17:34.522Z,78.86
2023-11-17T03:17:55.570Z,78.89
2023-11-17T03:18:16.608Z,78.83
2023-11-17T03:18:37.658Z,78.85
2023-11-17T03:18:58.724Z,78.80
2023-11-17T03:19:19.782Z,78.85
2023-11-17T03:19:40.846Z,78.80
2023-11-17T03:20:01.930Z,78.80
2023-11-17T03:20:22.966Z,78.85
2023-11-17T03:20:44.016Z,78.81
2023-11-17T03:21:05.072Z,78.81
2023-11-17T03:21:26.116Z,78.81
2023-11-17T03:21:47.213Z,78.82
2023-11-17T03:22:08.394Z,78.81
2023-11-17T03:22:29.540Z,78.83
2023-11-17T03:22:50.597Z,78.84
2023-11-17T03:23:11.637Z,78.87
2023-11-17T03:23:32.730Z,78.84
2023-11-17T03:23:53.765Z,78.86
2023-11-17T03:24:14.824Z,78.88
2023-11-17T03:24:35.916Z,78.84
2023-11-17T03:24:56.985Z,78.83
2023-11-17T03:25:18.047Z,78.79
2023-11-17T03:25:39.109Z,78.80
2023-11-17T03:26:00.221Z,78.83
2023-11-17T03:26:21.244Z,78.87
2023-11-17T03:26:42.301Z,78.90
2023-11-17T03:27:03.364Z,78.89
2023-11-17T03:27:24.405Z,78.87
2023-11-17T03:27:45.473Z,78.87
2023-11-17T03:28:06.553Z,78.85
2023-11-17T03:28:27.700Z,78.87
2023-11-17T03:28:48.762Z,78.83
2023-11-17T03:29:09.832Z,78.85
2023-11-17T03:29:30.906Z,78.82
2023-11-17T03:29:52.004Z,78.77
2023-11-17T03:30:13.076Z,78.77
2023-11-17T03:30:34.116Z,78.75
2023-11-17T03:30:55.211Z,78.72
2023-11-17T03:31:16.517Z,78.72
2023-11-17T03:31:37.710Z,78.73
2023-11-17T03:31:59.157Z,78.74
2023-11-17T03:32:20.487Z,78.72
2023-11-17T03:32:41.654Z,78.68
2023-11-17T03:33:02.948Z,78.69
2023-11-17T03:33:24.146Z,78.67
2023-11-17T03:33:45.219Z,78.68
2023-11-17T03:34:06.305Z,78.71
2023-11-17T03:34:27.359Z,78.70
2023-11-17T03:34:48.406Z,78.78
2023-11-17T03:35:09.462Z,78.73
2023-11-17T03:35:30.537Z,78.74
2023-11-17T03:35:51.625Z,78.76
2023-11-17T03:36:12.682Z,78.75
2023-11-17T03:36:33.750Z,78.72
2023-11-17T03:36:54.865Z,78.65
2023-11-17T03:37:15.977Z,78.65
2023-11-17T03:37:37.028Z,78.69
2023-11-17T03:37:58.083Z,78.66
2023-11-17T03:38:19.149Z,78.63
2023-11-17T03:38:40.200Z,78.66
2023-11-17T03:39:01.288Z,78.69
2023-11-17T03:39:22.335Z,78.74
2023-11-17T03:39:43.569Z,78.67
2023-11-17T03:40:04.652Z,78.66
2023-11-17T03:40:25.700Z,78.68
2023-11-17T03:40:46.816Z,78.63
2023-11-17T03:41:07.880Z,78.60
2023-11-17T03:41:28.930Z,78.66
2023-11-17T03:41:50.031Z,78.61
2023-11-17T03:42:11.138Z,78.62
2023-11-17T03:42:32.175Z,78.60
2023-11-17T03:42:53.252Z,78.58
2023-11-17T03:43:14.323Z,78.50
2023-11-17T03:43:35.394Z,78.50
2023-11-17T03:43:56.456Z,78.45
2023-11-17T03:44:17.545Z,78.45
2023-11-17T03:44:38.595Z,78.45
2023-11-17T03:44:59.645Z,78.48
2023-11-17T03:45:20.693Z,78.52
2023-11-17T03:45:41.771Z,78.43
2023-11-17T03:46:02.969Z,78.44
2023-11-17T03:46:24.029Z,78.43
2023-11-17T03:46:45.096Z,78.45
2023-11-17T03:47:06.186Z,78.47
2023-11-17T03:47:27.290Z,78.47
2023-11-17T03:47:48.438Z,78.46
2023-11-17T03:48:09.512Z,78.47
2023-11-17T03:48:30.538Z,78.43
2023-11-17T03:48:51.639Z,78.47
2023-11-17T03:49:12.720Z,78.48
2023-11-17T03:49:33.886Z,78.46
2023-11-17T03:49:54.924Z,78.43
2023-11-17T03:50:15.980Z,78.43
2023-11-17T03:50:37.034Z,78.41
2023-11-17T03:50:58.111Z,78.41
2023-11-17T03:51:19.198Z,78.43
2023-11-17T03:51:40.274Z,78.45
2023-11-17T03:52:01.382Z,78.50
2023-11-17T03:52:22.410Z,78.48
2023-11-17T03:52:43.478Z,78.58
2023-11-17T03:53:04.507Z,78.52
2023-11-17T03:53:25.563Z,78.57
2023-11-17T03:53:46.630Z,78.53
2023-11-17T03:54:07.689Z,78.56
2023-11-17T03:54:28.740Z,78.57
2023-11-17T03:54:49.823Z,78.58
2023-11-17T03:55:10.915Z,78.55
2023-11-17T03:55:32.105Z,78.55
2023-11-17T03:55:53.123Z,78.53
2023-11-17T03:56:14.209Z,78.55
2023-11-17T03:56:35.234Z,78.61
2023-11-17T03:56:56.290Z,78.60
2023-11-17T03:57:17.341Z,78.60
2023-11-17T03:57:38.402Z,78.55
2023-11-17T03:57:59.531Z,78.55
2023-11-17T03:58:20.614Z,78.57
2023-11-17T03:58:41.693Z,78.54
2023-11-17T03:59:02.786Z,78.48
2023-11-17T03:59:23.911Z,78.50
2023-11-17T03:59:44.966Z,78.44
2023-11-17T04:00:06.066Z,78.41
2023-11-17T04:00:27.109Z,78.37
2023-11-17T04:00:48.211Z,78.33
2023-11-17T04:01:09.453Z,78.31
2023-11-17T04:01:30.686Z,78.34
2023-11-17T04:01:51.861Z,78.37
2023-11-17T04:02:12.935Z,78.31
2023-11-17T04:02:34.050Z,78.33
2023-11-17T04:02:55.133Z,78.34
2023-11-17T04:03:16.238Z,78.40
2023-11-17T04:03:37.329Z,78.37
2023-11-17T04:03:58.441Z,78.39
2023-11-17T04:04:19.829Z,78.40
2023-11-17T04:04:40.921Z,78.39
2023-11-17T04:05:01.978Z,78.38
2023-11-17T04:05:23.028Z,78.43
2023-11-17T04:05:44.089Z,78.38
2023-11-17T04:06:05.135Z,78.40
2023-11-17T04:06:26.194Z,78.39
2023-11-17T04:06:47.242Z,78.45
2023-11-17T04:07:08.319Z,78.40
2023-11-17T04:07:29.377Z,78.30
2023-11-17T04:07:50.423Z,78.36
2023-11-17T04:08:11.476Z,78.28
2023-11-17T04:08:32.526Z,78.24
2023-11-17T04:08:53.593Z,78.21
2023-11-17T04:09:14.637Z,78.25
2023-11-17T04:09:35.695Z,78.26
2023-11-17T04:09:56.796Z,78.22
2023-11-17T04:10:17.894Z,78.26
2023-11-17T04:10:38.916Z,78.20
2023-11-17T04:10:59.969Z,78.20
2023-11-17T04:11:21.046Z,78.21
2023-11-17T04:11:42.078Z,78.24
2023-11-17T04:12:03.136Z,78.20
2023-11-17T04:12:24.192Z,78.26
2023-11-17T04:12:45.257Z,78.24
2023-11-17T04:13:06.304Z,78.24
2023-11-17T04:13:27.383Z,78.24
2023-11-17T04:13:48.448Z,78.23
2023-11-17T04:14:09.496Z,78.21
2023-11-17T04:14:30.568Z,78.20
2023-11-17T04:14:51.686Z,78.24
2023-11-17T04:15:14.748Z,78.25
2023-11-17T04:15:35.906Z,78.31
2023-11-17T04:15:57.056Z,78.19
2023-11-17T04:16:18.207Z,78.21
2023-11-17T04:16:39.298Z,78.21
2023-11-17T04:17:00.453Z,78.11
2023-11-17T04:17:21.517Z,78.21
2023-11-17T04:17:42.635Z,78.19
2023-11-17T04:18:03.703Z,78.22
2023-11-17T04:18:24.747Z,78.20
2023-11-17T04:18:45.812Z,78.17
2023-11-17T04:19:06.890Z,78.15
2023-11-17T04:19:27.979Z,78.11
2023-11-17T04:19:49.015Z,78.04
2023-11-17T04:20:10.097Z,78.06
2023-11-17T04:20:31.149Z,78.04
2023-11-17T04:20:52.191Z,78.07
2023-11-17T04:21:13.270Z,78.08
2023-11-17T04:21:34.309Z,78.09
2023-11-17T04:21:55.428Z,78.09
2023-11-17T04:22:16.497Z,78.04
2023-11-17T04:22:37.640Z,78.03
2023-11-17T04:22:58.755Z,78.06
2023-11-17T04:23:19.820Z,78.02
2023-11-17T04:23:40.886Z,78.04
2023-11-17T04:24:01.999Z,78.07
2023-11-17T04:24:23.049Z,78.12
2023-11-17T04:24:44.114Z,78.11
2023-11-17T04:25:05.246Z,78.08
2023-11-17T04:25:26.350Z,78.06
2023-11-17T04:25:47.397Z,78.07
2023-11-17T04:26:08.455Z,78.03
2023-11-17T04:26:29.520Z,78.07
2023-11-17T04:26:50.565Z,78.08
2023-11-17T04:27:11.608Z,78.05
2023-11-17T04:27:32.665Z,78.01
2023-11-17T04:27:53.862Z,77.98
2023-11-17T04:28:15.005Z,77.96
2023-11-17T04:28:36.048Z,77.93
2023-11-17T04:28:57.138Z,77.92
2023-11-17T04:29:18.209Z,77.82
2023-11-17T04:29:39.249Z,77.84
2023-11-17T04:30:00.328Z,77.84
2023-11-17T04:30:21.392Z,77.80
2023-11-17T04:30:42.431Z,77.73
2023-11-17T04:31:03.522Z,77.74
2023-11-17T04:31:24.565Z,77.70
2023-11-17T04:31:45.660Z,77.66